createdAt,value
2018-10-09T00:01:40.668Z,13.89
2018-10-09T00:31:59.344Z,13.85
2018-10-09T00:34:48.265Z,13.79
2018-10-09T00:37:26.206Z,13.69
2018-10-09T00:57:56.478Z,13.57
2018-10-09T01:57:01.454Z,12.97
2018-10-09T02:45:14.725Z,13.05
2018-10-09T02:48:29.179Z,13.01
2018-10-09T02:51:32.260Z,13.05
2018-10-09T02:54:22.859Z,13.09
2018-10-09T03:00:18.727Z,13.16
2018-10-09T03:03:15.588Z,13.14
2018-10-09T03:05:56.521Z,13.06
2018-10-09T03:08:57.306Z,12.96
2018-10-09T03:11:51.456Z,12.90
2018-10-09T03:14:30.698Z,12.81
2018-10-09T03:17:48.949Z,12.77
2018-10-09T03:20:49.908Z,12.63
2018-10-09T03:30:11.384Z,12.46
2018-10-09T03:35:50.789Z,12.47
2018-10-09T03:41:59.997Z,12.46
2018-10-09T03:51:52.081Z,12.29
2018-10-09T03:54:35.175Z,12.38
2018-10-09T04:03:24.721Z,12.64
2018-10-09T06:01:22.398Z,13.00
2018-10-09T06:04:00.545Z,13.10
2018-10-09T06:06:30.890Z,13.21
2018-10-09T06:09:01.173Z,13.29
2018-10-09T06:11:47.292Z,13.34
2018-10-09T06:14:18.331Z,13.41
2018-10-09T06:16:50.904Z,13.51
2018-10-09T06:19:21.713Z,13.56
2018-10-09T06:21:52.095Z,13.62
2018-10-09T06:24:25.516Z,13.68
2018-10-09T06:26:57.848Z,13.68
2018-10-09T06:29:46.449Z,13.67
2018-10-09T06:32:19.611Z,13.65
2018-10-09T06:34:50.434Z,13.67
2018-10-09T06:37:33.801Z,13.65
2018-10-09T06:40:22.670Z,13.70
2018-10-09T06:43:23.242Z,13.78
2018-10-09T07:18:13.010Z,14.98
2018-10-09T07:21:13.468Z,15.23
2018-10-09T07:23:47.154Z,15.44
2018-10-09T07:40:25.868Z,16.06
2018-10-09T08:04:46.473Z,17.09
2018-10-09T08:07:32.847Z,17.29
2018-10-09T08:10:11.927Z,17.43
2018-10-09T08:12:43.153Z,17.54
2018-10-09T08:15:29.529Z,17.58
2018-10-09T08:18:01.834Z,17.62
2018-10-09T08:20:34.927Z,17.56
2018-10-09T08:23:07.738Z,17.42
2018-10-09T08:25:59.192Z,17.45
2018-10-09T08:28:45.201Z,17.50
2018-10-09T08:34:44.647Z,17.58
2018-10-09T08:37:29.230Z,17.63
2018-10-09T08:40:02.267Z,17.73
2018-10-09T08:42:43.584Z,17.84
2018-10-09T08:45:29.574Z,18.00
2018-10-09T08:48:03.903Z,18.16
2018-10-09T08:50:36.650Z,18.21
2018-10-09T08:53:13.460Z,18.22
2018-10-09T08:55:48.671Z,18.23
2018-10-09T08:58:22.678Z,18.40
2018-10-09T09:01:03.451Z,18.49
2018-10-09T09:03:34.769Z,18.54
2018-10-09T09:06:36.944Z,18.44
2018-10-09T09:09:10.735Z,18.45
2018-10-09T09:14:49.205Z,18.69
2018-10-09T09:17:21.780Z,18.87
2018-10-09T09:19:57.357Z,19.02
2018-10-09T09:27:20.806Z,19.16
2018-10-09T09:29:52.009Z,19.17
2018-10-09T09:35:38.217Z,18.93
2018-10-09T09:38:20.193Z,19.02
2018-10-09T09:41:05.848Z,19.13
2018-10-09T10:18:29.144Z,19.62
2018-10-09T10:27:48.790Z,20.35
2018-10-09T10:39:35.476Z,20.05
2018-10-09T10:50:33.898Z,20.55
2018-10-09T11:06:54.745Z,21.37
2018-10-09T11:09:46.220Z,21.52
2018-10-09T11:12:33.808Z,21.56
2018-10-09T11:15:15.353Z,21.67
2018-10-09T11:54:31.052Z,22.69
2018-10-09T11:58:14.380Z,22.62
2018-10-09T12:00:59.183Z,22.82
2018-10-09T12:04:08.500Z,23.05
2018-10-09T12:10:01.065Z,23.27
2018-10-09T12:12:40.653Z,23.41
2018-10-09T12:21:43.213Z,23.56
2018-10-09T12:25:04.242Z,23.79
2018-10-09T12:27:41.810Z,24.02
2018-10-09T12:30:32.177Z,24.22
2018-10-09T12:33:09.140Z,24.28
2018-10-09T12:35:44.607Z,24.20
2018-10-09T12:38:36.266Z,24.22
2018-10-09T12:41:17.487Z,24.30
2018-10-09T12:46:43.549Z,24.32
2018-10-09T12:49:20.280Z,24.34
2018-10-09T12:52:01.461Z,24.30
2018-10-09T12:55:15.718Z,24.31
2018-10-09T12:57:54.733Z,24.34
2018-10-09T13:00:34.001Z,24.36
2018-10-09T13:03:18.357Z,24.36
2018-10-09T13:05:55.129Z,24.34
2018-10-09T13:22:53.820Z,24.25
2018-10-09T13:26:04.917Z,24.33
2018-10-09T13:28:43.510Z,24.31
2018-10-09T13:31:14.772Z,24.42
2018-10-09T13:33:50.750Z,24.58
2018-10-09T13:36:20.812Z,24.57
2018-10-09T13:42:12.549Z,24.69
2018-10-09T13:44:55.813Z,24.73
2018-10-09T13:50:31.912Z,24.52
2018-10-09T13:53:52.896Z,24.48
2018-10-09T14:00:05.092Z,24.32
2018-10-09T14:02:50.179Z,24.25
2018-10-09T14:05:30.361Z,24.16
2018-10-09T14:08:09.310Z,24.12
2018-10-09T14:19:53.035Z,23.95
2018-10-09T14:22:41.663Z,23.97
2018-10-09T14:25:19.717Z,24.00
2018-10-09T14:28:59.848Z,23.98
2018-10-09T14:34:45.903Z,23.79
2018-10-09T14:37:30.007Z,23.77
2018-10-09T14:40:18.008Z,23.78
2018-10-09T14:42:49.442Z,23.77
2018-10-09T14:45:21.014Z,23.75
2018-10-09T14:47:52.481Z,23.69
2018-10-09T14:50:22.858Z,23.64
2018-10-09T14:52:56.999Z,23.61
2018-10-09T14:55:28.646Z,23.55
2018-10-09T14:58:15.983Z,23.48
2018-10-09T15:00:46.693Z,23.43
2018-10-09T15:03:17.425Z,23.39
2018-10-09T15:05:50.361Z,23.35
2018-10-09T15:08:20.127Z,23.26
2018-10-09T15:10:50.627Z,23.15
2018-10-09T15:13:20.592Z,23.12
2018-10-09T15:15:54.198Z,23.07
2018-10-09T15:18:24.923Z,23.02
2018-10-09T15:20:55.508Z,22.96
2018-10-09T15:23:27.517Z,22.92
2018-10-09T15:26:05.697Z,22.84
2018-10-09T15:28:38.962Z,22.78
2018-10-09T15:31:13.340Z,22.78
2018-10-09T15:33:44.897Z,22.74
2018-10-09T15:36:24.881Z,22.70
2018-10-09T15:39:02.603Z,22.64
2018-10-09T15:41:34.579Z,22.57
2018-10-09T15:44:16.377Z,22.51
2018-10-09T15:46:56.860Z,22.46
2018-10-09T15:53:01.042Z,22.36
2018-10-09T15:55:35.579Z,22.32
2018-10-09T16:01:11.196Z,22.30
2018-10-09T16:03:48.321Z,22.22
2018-10-09T16:06:29.567Z,22.14
2018-10-09T16:09:12.790Z,22.04
2018-10-09T16:12:10.493Z,21.96
2018-10-09T16:14:56.124Z,21.91
2018-10-09T16:17:40.589Z,21.85
2018-10-09T16:23:13.166Z,21.66
2018-10-09T16:28:57.739Z,21.46
2018-10-09T16:31:35.914Z,21.38
2018-10-09T16:34:10.128Z,21.27
2018-10-09T16:37:16.318Z,21.17
2018-10-09T16:39:50.033Z,21.01
2018-10-09T16:42:20.365Z,20.92
2018-10-09T16:44:51.171Z,20.83
2018-10-09T16:47:24.478Z,20.77
2018-10-09T16:49:59.924Z,20.73
2018-10-09T16:52:35.131Z,20.67
2018-10-09T16:55:07.743Z,20.60
2018-10-09T16:57:39.080Z,20.55
2018-10-09T17:00:11.145Z,20.49
2018-10-09T17:03:08.696Z,20.42
2018-10-09T17:05:42.441Z,20.28
2018-10-09T17:08:27.732Z,20.21
2018-10-09T17:10:59.106Z,20.11
2018-10-09T17:13:32.860Z,20.08
2018-10-09T17:16:13.117Z,20.07
2018-10-09T17:18:49.393Z,20.05
2018-10-09T17:21:41.585Z,19.98
2018-10-09T17:24:18.478Z,19.88
2018-10-09T17:26:59.963Z,19.80
2018-10-09T17:29:40.926Z,19.74
2018-10-09T17:41:59.982Z,19.33
2018-10-09T17:44:35.440Z,19.27
2018-10-09T17:50:22.159Z,19.19
2018-10-09T17:53:23.350Z,19.20
2018-10-09T17:56:20.475Z,19.23
2018-10-09T18:02:40.132Z,19.26
2018-10-09T18:05:56.551Z,19.22
2018-10-09T18:12:31.397Z,19.16
2018-10-09T18:15:22.398Z,19.10
2018-10-09T18:32:25.053Z,18.85
2018-10-09T18:35:29.528Z,18.81
2018-10-09T18:38:16.487Z,18.79
2018-10-09T18:41:08.596Z,18.72
2018-10-09T18:46:48.744Z,18.69
2018-10-09T18:49:36.006Z,18.63
2018-10-09T18:52:20.510Z,18.64
2018-10-09T18:58:12.254Z,18.62
2018-10-09T19:00:58.459Z,18.62
2018-10-09T19:03:55.691Z,18.61
2018-10-09T19:06:48.483Z,18.60
2018-10-09T19:12:33.626Z,18.52
2018-10-09T19:15:12.787Z,18.43
2018-10-09T19:20:49.274Z,18.23
2018-10-09T19:23:21.735Z,18.18
2018-10-09T19:25:57.892Z,18.12
2018-10-09T19:28:41.557Z,18.04
2018-10-09T19:31:14.631Z,17.99
2018-10-09T19:33:48.913Z,17.94
2018-10-09T19:36:22.151Z,17.92
2018-10-09T19:38:52.476Z,17.93
2018-10-09T19:41:22.622Z,17.95
2018-10-09T19:43:53.453Z,17.95
2018-10-09T19:46:38.863Z,17.92
2018-10-09T19:49:26.110Z,17.87
2018-10-09T19:51:56.738Z,17.82
2018-10-09T19:55:59.892Z,17.79
2018-10-09T19:58:32.027Z,17.60
2018-10-09T20:04:32.616Z,17.51
2018-10-09T20:07:05.653Z,17.51
2018-10-09T20:09:43.394Z,17.55
2018-10-09T20:12:33.066Z,17.58
2018-10-09T20:15:11.452Z,17.60
2018-10-09T20:17:43.591Z,17.62
2018-10-09T20:20:15.267Z,17.64
2018-10-09T20:22:49.687Z,17.64
2018-10-09T20:25:26.451Z,17.63
2018-10-09T20:28:02.012Z,17.62
2018-10-09T20:30:35.496Z,17.57
2018-10-09T20:33:10.897Z,17.48
2018-10-09T20:35:48.878Z,17.37
2018-10-09T20:38:21.020Z,17.26
2018-10-09T20:40:54.258Z,17.22
2018-10-09T20:43:25.342Z,17.15
2018-10-09T20:45:57.319Z,17.12
2018-10-09T20:51:12.498Z,17.11
2018-10-09T20:53:43.673Z,17.09
2018-10-09T20:56:16.413Z,17.07
2018-10-09T20:59:00.634Z,17.04
2018-10-09T21:01:33.956Z,17.06
2018-10-09T21:04:16.851Z,17.10
2018-10-09T21:06:50.780Z,17.08
2018-10-09T21:09:23.673Z,17.10
2018-10-09T21:12:02.929Z,17.10
2018-10-09T21:44:54.951Z,16.72
2018-10-09T21:47:28.707Z,16.68
2018-10-09T21:49:59.176Z,16.68
2018-10-09T21:52:35.325Z,16.69
2018-10-09T21:55:06.105Z,16.66
2018-10-09T21:57:37.686Z,16.68
2018-10-09T22:00:10.258Z,16.70
2018-10-09T22:02:44.874Z,16.72
2018-10-09T22:05:23.744Z,16.72
2018-10-09T22:07:56.586Z,16.73
2018-10-09T22:10:29.071Z,16.71
2018-10-09T22:15:47.577Z,16.69
2018-10-09T22:18:18.176Z,16.62
2018-10-09T22:20:48.016Z,16.57
2018-10-09T22:23:21.154Z,16.54
2018-10-09T22:25:51.470Z,16.53
2018-10-09T22:28:38.427Z,16.56
2018-10-09T22:31:10.124Z,16.55
2018-10-09T22:33:52.295Z,16.51
2018-10-09T22:36:27.000Z,16.42
2018-10-09T22:38:58.857Z,16.40
2018-10-09T22:41:30.565Z,16.43
2018-10-09T22:44:02.832Z,16.46
2018-10-09T22:46:42.376Z,16.43
2018-10-09T22:49:16.495Z,16.36
2018-10-09T22:51:47.479Z,16.28
2018-10-09T22:54:18.914Z,16.20
2018-10-09T22:56:53.606Z,16.12
2018-10-09T22:59:23.435Z,16.06
2018-10-09T23:01:53.492Z,16.06
2018-10-09T23:04:25.478Z,16.04
2018-10-09T23:06:55.903Z,15.99
2018-10-09T23:09:26.428Z,15.91
2018-10-09T23:11:58.397Z,15.86
2018-10-09T23:14:30.658Z,15.86
2018-10-09T23:17:04.870Z,15.87
2018-10-09T23:19:45.237Z,15.92
2018-10-09T23:22:19.687Z,15.92
2018-10-09T23:24:50.794Z,15.94
2018-10-09T23:27:23.166Z,15.97
2018-10-09T23:29:55.540Z,15.99
2018-10-09T23:32:27.293Z,16.01
2018-10-09T23:34:57.967Z,16.02
2018-10-09T23:37:27.776Z,15.98
2018-10-09T23:39:59.057Z,15.92
2018-10-09T23:42:28.825Z,15.90
2018-10-09T23:45:00.551Z,15.91
2018-10-09T23:47:31.412Z,15.93
2018-10-09T23:50:03.395Z,15.86
2018-10-09T23:52:35.802Z,15.77
2018-10-09T23:55:07.050Z,15.65
2018-10-09T23:57:40.458Z,15.59
